Lindfisk — LM6410 — position and weather

sailwx.info

Track history (hours):
 
Tides and Currents Weather Stations Pressure Air Temp Water Temp Dewpoint Dewpoint Depression Visibility Wind Speed Wind Dir Waves Ship Positions

Lindfisk

Last reported at 2017-Nov-16 09:06 UTC. Time now 2017-Dec-17 06:36 UTC.
Position N 70°12' E 031°21'.
Warning: this ship's position is 30 days out of date.

Length 13 m.

Type: Fishing. MMSI: 257333220.

Date/timePositionNaut miles runAvg speedWind from/ knotsBaromVisibWave heightAir tempDewpointWater temp
2017-Nov-16 09:06N 70°12' E 031°21'1 7.3
2017-Nov-16 08:59N 70°13' E 031°19'0 0.9
2017-Nov-16 08:30N 70°12' E 031°20'1 1.3
2017-Nov-16 08:00N 70°12' E 031°22'1 1.5
2017-Nov-16 07:30N 70°11' E 031°23'1 1.5
2017-Nov-16 07:00N 70°11' E 031°25'1 1.3
2017-Nov-16 06:30N 70°10' E 031°26'0 1.0
2017-Nov-16 06:00N 70°10' E 031°27'3 5.7
2017-Nov-16 05:29N 70°13' E 031°30'3 6.6
2017-Nov-16 05:00N 70°14' E 031°21'4 7.6
2017-Nov-16 04:30N 70°15' E 031°11'4 7.8
2017-Nov-16 04:00N 70°17' E 030°60'0 0.5
2017-Nov-16 03:29N 70°17' E 031°00'0 0.0
2017-Nov-16 02:59N 70°17' E 031°00'0 0.0
2017-Nov-16 02:29N 70°17' E 031°00'0 0.0
2017-Nov-16 01:59N 70°17' E 031°00'0 0.0
2017-Nov-16 01:29N 70°17' E 031°00'0 0.0
2017-Nov-16 00:59N 70°17' E 031°00'0 0.0
2017-Nov-16 00:29N 70°17' E 031°00'0 0.0
2017-Nov-15 23:59N 70°17' E 031°00'0 0.0
2017-Nov-15 23:29N 70°17' E 031°00'0 0.0
2017-Nov-15 22:59N 70°17' E 031°00'0 0.0
2017-Nov-15 22:29N 70°17' E 031°00'0 0.0
2017-Nov-15 21:59N 70°17' E 031°00'0 0.0
2017-Nov-15 21:29N 70°17' E 031°00'0 0.0
2017-Nov-15 20:59N 70°17' E 031°00'0 0.0
2017-Nov-15 20:29N 70°17' E 031°00'0 0.0
2017-Nov-15 19:59N 70°17' E 031°00'0 0.0
2017-Nov-15 19:29N 70°17' E 031°00'0 0.0
2017-Nov-15 18:59N 70°17' E 031°00'0 0.0
2017-Nov-15 18:29N 70°17' E 031°00'0 0.0
2017-Nov-15 17:59N 70°17' E 031°00'0 0.0
2017-Nov-15 17:29N 70°17' E 031°00'0 0.0
2017-Nov-15 16:59N 70°17' E 031°00'0 0.3
2017-Nov-15 16:31N 70°17' E 030°60'0 0.0
2017-Nov-15 16:00N 70°17' E 030°60'3 6.1
2017-Nov-15 15:30N 70°15' E 031°07'4 7.7
2017-Nov-15 15:00N 70°13' E 031°17'3 7.1
2017-Nov-15 14:30N 70°11' E 031°25'3 5.9
2017-Nov-15 14:00N 70°08' E 031°29'0 0.2
2017-Nov-15 13:30N 70°08' E 031°28'1 1.3
2017-Nov-15 13:00N 70°08' E 031°27'1 1.3
2017-Nov-15 12:30N 70°08' E 031°26'1 1.2
2017-Nov-15 12:00N 70°07' E 031°24'1 1.2
2017-Nov-15 11:30N 70°07' E 031°23'1 1.2
2017-Nov-15 10:59N 70°06' E 031°22'2 3.4
2017-Nov-15 10:30N 70°08' E 031°22'1 2.4
2017-Nov-15 10:00N 70°09' E 031°22'1 1.4
2017-Nov-15 09:29N 70°10' E 031°23'1 1.3
2017-Nov-15 09:00N 70°10' E 031°24'2 3.6
2017-Nov-15 08:30N 70°09' E 031°20'1 1.3
2017-Nov-15 08:00N 70°08' E 031°19'0 1.0
2017-Nov-15 07:30N 70°08' E 031°18'1 1.1
2017-Nov-15 07:00N 70°07' E 031°17'2 4.1
2017-Nov-15 06:30N 70°08' E 031°22'3 6.1
2017-Nov-15 06:00N 70°11' E 031°29'3 6.3
2017-Nov-15 05:30N 70°13' E 031°22'3 6.2
2017-Nov-15 05:01N 70°14' E 031°14'3 6.2
2017-Nov-15 04:29N 70°16' E 031°06'2 4.6
2017-Nov-15 03:59N 70°17' E 031°00'0 0.0
2017-Nov-15 03:29N 70°17' E 031°00'0 0.0
2017-Nov-15 02:59N 70°17' E 031°00'0 0.0
2017-Nov-15 02:29N 70°17' E 031°00'0 0.0
2017-Nov-15 01:59N 70°17' E 031°00'0 0.0
2017-Nov-15 01:29N 70°17' E 031°00'0 0.0
2017-Nov-15 00:59N 70°17' E 031°00'0 0.0
2017-Nov-15 00:29N 70°17' E 031°00'0 0.0
2017-Nov-14 23:59N 70°17' E 031°00'0 0.0
2017-Nov-14 23:29N 70°17' E 031°00'0 0.0
2017-Nov-14 22:59N 70°17' E 031°00'0 0.0
2017-Nov-14 22:29N 70°17' E 031°00'0 0.0
2017-Nov-14 21:59N 70°17' E 031°00'0 0.0
2017-Nov-14 21:29N 70°17' E 031°00'0 0.0
2017-Nov-14 20:59N 70°17' E 031°00'0 0.0
2017-Nov-14 20:29N 70°17' E 031°00'0 0.0
2017-Nov-14 19:59N 70°17' E 031°00'0 0.0
2017-Nov-14 19:29N 70°17' E 031°00'0 0.0
2017-Nov-14 18:59N 70°17' E 031°00'0 0.0
2017-Nov-14 18:29N 70°17' E 031°00'0 0.0
2017-Nov-14 17:59N 70°17' E 031°00'0 0.3
2017-Nov-14 17:29N 70°17' E 030°60'0 0.0
2017-Nov-14 17:00N 70°17' E 030°60'0 0.0
2017-Nov-14 16:30N 70°17' E 030°60'0 0.1
2017-Nov-14 16:00N 70°17' E 030°60'0 0.0
2017-Nov-14 15:30N 70°17' E 030°60'0 0.0
2017-Nov-14 15:00N 70°17' E 030°60'0 0.3
2017-Nov-14 14:30N 70°17' E 031°00'3 6.1
2017-Nov-14 13:59N 70°14' E 031°05'4 7.8
2017-Nov-14 13:30N 70°11' E 031°13'4 7.6
2017-Nov-14 13:00N 70°09' E 031°20'1 1.9
2017-Nov-14 12:30N 70°08' E 031°22'0 0.8
2017-Nov-14 11:59N 70°08' E 031°22'0 0.8
2017-Nov-14 11:27N 70°08' E 031°21'0 1.1
2017-Nov-14 11:00N 70°07' E 031°20'1 1.2
2017-Nov-14 10:30N 70°07' E 031°18'1 1.1
2017-Nov-14 10:00N 70°06' E 031°17'0 0.3
2017-Nov-14 09:30N 70°07' E 031°17'3 6.4
2017-Nov-14 09:00N 70°09' E 031°22'2 3.6
2017-Nov-14 08:30N 70°10' E 031°26'0 1.0
2017-Nov-14 08:00N 70°11' E 031°25'1 1.0
2017-Nov-14 07:30N 70°11' E 031°24'0 1.0
2017-Nov-14 07:00N 70°11' E 031°23'1 1.2
2017-Nov-14 06:30N 70°12' E 031°22'1 1.1
2017-Nov-14 05:59N 70°12' E 031°21'0 0.9
2017-Nov-14 05:30N 70°13' E 031°20'1 1.1
2017-Nov-14 05:00N 70°13' E 031°18'4 7.8
2017-Nov-14 04:30N 70°15' E 031°08'4 7.4
2017-Nov-14 04:00N 70°17' E 030°60'0 0.3
2017-Nov-14 03:28N 70°17' E 031°00'0 0.0
2017-Nov-14 02:58N 70°17' E 031°00'0 0.0
2017-Nov-14 02:28N 70°17' E 031°00'0 0.0
2017-Nov-14 01:58N 70°17' E 031°00'0 0.0
2017-Nov-14 01:28N 70°17' E 031°00'0 0.0
2017-Nov-14 00:58N 70°17' E 031°00'0 0.0
2017-Nov-14 00:28N 70°17' E 031°00'0 0.0
2017-Nov-13 23:58N 70°17' E 031°00'0 0.0
2017-Nov-13 23:28N 70°17' E 031°00'0 0.0
2017-Nov-13 22:58N 70°17' E 031°00'0 0.0
2017-Nov-13 22:28N 70°17' E 031°00'0 0.0
2017-Nov-13 21:58N 70°17' E 031°00'0 0.0
2017-Nov-13 01:59N 70°17' E 030°60'0 0.0
2017-Nov-13 01:29N 70°17' E 030°60'0 0.0
2017-Nov-13 00:59N 70°17' E 030°60'0 0.0
2017-Nov-13 00:29N 70°17' E 030°60'0 0.0
2017-Nov-12 23:59N 70°17' E 030°60'0 0.0
2017-Nov-12 23:29N 70°17' E 030°60'0 0.0
2017-Nov-12 22:59N 70°17' E 030°60'0 0.0
2017-Nov-12 22:29N 70°17' E 030°60'0 0.0
2017-Nov-12 21:56N 70°17' E 030°60'0 0.0
2017-Nov-12 21:29N 70°17' E 030°60'0 0.0
2017-Nov-12 20:59N 70°17' E 030°60'0 0.0
2017-Nov-12 20:29N 70°17' E 030°60'0 0.0
2017-Nov-12 19:59N 70°17' E 030°60'0 0.0
2017-Nov-12 19:29N 70°17' E 030°60'0 0.0
2017-Nov-12 18:59N 70°17' E 030°60'0 0.0
2017-Nov-12 18:29N 70°17' E 030°60'0 0.0
2017-Nov-12 17:59N 70°17' E 030°60'0 0.0
2017-Nov-12 17:29N 70°17' E 030°60'0 0.0
2017-Nov-12 16:59N 70°17' E 030°60'0 0.0
2017-Nov-12 16:29N 70°17' E 030°60'0 0.0
2017-Nov-12 15:59N 70°17' E 030°60'0 0.0
2017-Nov-12 15:29N 70°17' E 030°60'0 0.0
2017-Nov-12 14:59N 70°17' E 030°60'0 0.0
2017-Nov-12 14:29N 70°17' E 030°60'0 0.0
2017-Nov-12 13:59N 70°17' E 030°60'0 0.0
2017-Nov-12 13:29N 70°17' E 030°60'0 0.0
2017-Nov-12 12:59N 70°17' E 030°60'0 0.0
2017-Nov-12 12:29N 70°17' E 030°60'0 0.0
2017-Nov-12 11:59N 70°17' E 030°60'0 0.0
2017-Nov-12 11:29N 70°17' E 030°60'0 0.0
2017-Nov-12 10:59N 70°17' E 030°60'0 0.0
2017-Nov-12 10:29N 70°17' E 030°60'0 0.0
2017-Nov-12 09:59N 70°17' E 030°60'0 0.0
2017-Nov-12 09:29N 70°17' E 030°60'0 0.0
2017-Nov-12 08:59N 70°17' E 030°60'0 0.0
2017-Nov-12 08:29N 70°17' E 030°60'0 0.0
2017-Nov-12 07:59N 70°17' E 030°60'0 0.0
2017-Nov-12 07:29N 70°17' E 030°60'0 0.0
2017-Nov-12 06:59N 70°17' E 030°60'0 0.0
2017-Nov-12 06:29N 70°17' E 030°60'0 0.0
2017-Nov-12 05:59N 70°17' E 030°60'0 0.0
2017-Nov-12 05:29N 70°17' E 030°60'0 0.0
2017-Nov-12 04:59N 70°17' E 030°60'0 0.0
2017-Nov-12 04:29N 70°17' E 030°60'0 0.0
2017-Nov-12 03:59N 70°17' E 030°60'0 0.0
2017-Nov-12 03:29N 70°17' E 030°60'0 0.0
2017-Nov-12 02:59N 70°17' E 030°60'0 0.0
2017-Nov-12 02:29N 70°17' E 030°60'0 0.0
2017-Nov-12 01:59N 70°17' E 030°60'0 0.0
2017-Nov-12 01:29N 70°17' E 030°60'0 0.0
2017-Nov-12 00:59N 70°17' E 030°60'0 0.0
2017-Nov-12 00:29N 70°17' E 030°60'0 0.0
2017-Nov-11 23:59N 70°17' E 030°60'0 0.0
2017-Nov-11 23:29N 70°17' E 030°60'0 0.0
2017-Nov-11 22:59N 70°17' E 030°60'0 0.0
2017-Nov-11 22:29N 70°17' E 030°60'0 0.0
2017-Nov-11 21:59N 70°17' E 030°60'0 0.0
2017-Nov-11 21:29N 70°17' E 030°60'0 0.0
2017-Nov-11 20:59N 70°17' E 030°60'0 0.0
2017-Nov-11 20:29N 70°17' E 030°60'0 0.0
2017-Nov-11 19:59N 70°17' E 030°60'0 0.0
2017-Nov-11 19:29N 70°17' E 030°60'0 0.0
2017-Nov-11 18:59N 70°17' E 030°60'0 0.0
2017-Nov-11 18:29N 70°17' E 030°60'0 0.0
2017-Nov-11 17:59N 70°17' E 030°60'0 0.0
2017-Nov-11 17:26N 70°17' E 030°60'0 0.0
2017-Nov-11 16:59N 70°17' E 030°60'0 0.0
2017-Nov-11 16:29N 70°17' E 030°60'0 0.0
2017-Nov-11 15:59N 70°17' E 030°60'0 0.0
2017-Nov-11 15:29N 70°17' E 030°60'0 0.0
2017-Nov-11 14:59N 70°17' E 030°60'0 0.0
2017-Nov-11 14:29N 70°17' E 030°60'0 0.0
2017-Nov-11 13:59N 70°17' E 030°60'0 0.0
2017-Nov-11 13:29N 70°17' E 030°60'0 0.0
2017-Nov-11 12:59N 70°17' E 030°60'0 0.0
2017-Nov-11 12:29N 70°17' E 030°60'0 0.0
2017-Nov-11 11:59N 70°17' E 030°60'0 0.0
2017-Nov-11 11:29N 70°17' E 030°60'0 0.0
2017-Nov-11 10:59N 70°17' E 030°60'0 0.0
2017-Nov-11 10:29N 70°17' E 030°60'0 0.0
2017-Nov-11 09:59N 70°17' E 030°60'0 0.0
2017-Nov-11 09:29N 70°17' E 030°60'0 0.0
2017-Nov-11 08:59N 70°17' E 030°60'0 0.0
2017-Nov-11 08:29N 70°17' E 030°60'0 0.0
2017-Nov-11 07:59N 70°17' E 030°60'0 0.0
2017-Nov-11 07:29N 70°17' E 030°60'0 0.0
2017-Nov-11 06:59N 70°17' E 030°60'0 0.0
2017-Nov-11 06:29N 70°17' E 030°60'0 0.0
2017-Nov-11 05:59N 70°17' E 030°60'0 0.0
2017-Nov-11 05:29N 70°17' E 030°60'0 0.0
2017-Nov-11 04:59N 70°17' E 030°60'0 0.0
2017-Nov-11 04:29N 70°17' E 030°60'0 0.0
2017-Nov-11 03:59N 70°17' E 030°60'0 0.0
2017-Nov-11 03:29N 70°17' E 030°60'0 0.0
2017-Nov-11 02:59N 70°17' E 030°60'0 0.0
2017-Nov-11 02:29N 70°17' E 030°60'0 0.0
2017-Nov-11 01:59N 70°17' E 030°60'0 0.0
2017-Nov-11 01:29N 70°17' E 030°60'0 0.0
2017-Nov-11 00:59N 70°17' E 030°60'0 0.0
2017-Nov-11 00:29N 70°17' E 030°60'0 0.0
2017-Nov-10 23:59N 70°17' E 030°60'0 0.0
2017-Nov-10 23:29N 70°17' E 030°60'0 0.0
2017-Nov-10 21:56N 70°17' E 030°60'0 0.0
2017-Nov-10 21:23N 70°17' E 030°60'0 0.0
2017-Nov-10 20:59N 70°17' E 030°60'0 0.0
2017-Nov-10 20:29N 70°17' E 030°60'0 0.0
2017-Nov-10 19:59N 70°17' E 030°60'0 0.0
2017-Nov-10 19:29N 70°17' E 030°60'0 0.0
2017-Nov-10 18:59N 70°17' E 030°60'0 0.0
2017-Nov-10 18:26N 70°17' E 030°60'0 0.0
2017-Nov-10 17:59N 70°17' E 030°60'0 0.0
2017-Nov-10 17:29N 70°17' E 030°60'0 0.0
2017-Nov-10 16:59N 70°17' E 030°60'0 0.0
2017-Nov-10 16:29N 70°17' E 030°60'0 0.0
2017-Nov-10 15:59N 70°17' E 030°60'0 0.0
2017-Nov-10 15:29N 70°17' E 030°60'0 0.0
2017-Nov-10 14:59N 70°17' E 030°60'0 0.0
2017-Nov-10 14:29N 70°17' E 030°60'0 0.0
2017-Nov-10 13:59N 70°17' E 030°60'0 0.0
2017-Nov-10 13:29N 70°17' E 030°60'0 0.0
2017-Nov-10 12:59N 70°17' E 030°60'0 0.0
2017-Nov-10 12:29N 70°17' E 030°60'0 0.0
2017-Nov-10 11:59N 70°17' E 030°60'0 0.0
2017-Nov-10 11:29N 70°17' E 030°60'0 0.0
2017-Nov-10 10:59N 70°17' E 030°60'0 0.0
2017-Nov-10 10:29N 70°17' E 030°60'0 0.0
2017-Nov-10 09:59N 70°17' E 030°60'0 0.0
2017-Nov-10 09:29N 70°17' E 030°60'0 0.0
2017-Nov-10 08:59N 70°17' E 030°60'0 0.0
2017-Nov-10 08:29N 70°17' E 030°60'0 0.0
2017-Nov-10 07:59N 70°17' E 030°60'0 0.0
2017-Nov-10 07:29N 70°17' E 030°60'0 0.0
2017-Nov-10 06:59N 70°17' E 030°60'0 0.0
2017-Nov-10 06:29N 70°17' E 030°60'0 0.0
2017-Nov-10 05:59N 70°17' E 030°60'0 0.0
2017-Nov-10 05:29N 70°17' E 030°60'0 0.0
2017-Nov-10 04:59N 70°17' E 030°60'0 0.0
2017-Nov-10 04:29N 70°17' E 030°60'0 0.0
2017-Nov-10 03:59N 70°17' E 030°60'0 0.0
2017-Nov-10 03:29N 70°17' E 030°60'0 0.0
2017-Nov-10 02:59N 70°17' E 030°60'0 0.0
2017-Nov-10 02:29N 70°17' E 030°60'0 0.0
2017-Nov-10 01:59N 70°17' E 030°60'0 0.0
2017-Nov-10 01:29N 70°17' E 030°60'0 0.0
2017-Nov-10 00:59N 70°17' E 030°60'0 0.0
2017-Nov-10 00:29N 70°17' E 030°60'0 0.0
2017-Nov-09 23:59N 70°17' E 030°60'0 0.0
2017-Nov-09 23:29N 70°17' E 030°60'0 0.0
2017-Nov-09 22:59N 70°17' E 030°60'0 0.0
2017-Nov-09 22:29N 70°17' E 030°60'0 0.0
2017-Nov-09 21:59N 70°17' E 030°60'0 0.0
2017-Nov-09 21:29N 70°17' E 030°60'0 0.0
2017-Nov-09 20:59N 70°17' E 030°60'0 0.0
2017-Nov-09 20:29N 70°17' E 030°60'0 0.0
2017-Nov-09 19:59N 70°17' E 030°60'0 0.0
2017-Nov-09 19:29N 70°17' E 030°60'0 0.0
2017-Nov-09 18:59N 70°17' E 030°60'0 0.0
2017-Nov-09 18:29N 70°17' E 030°60'0 0.0
2017-Nov-09 17:59N 70°17' E 030°60'0 0.0
2017-Nov-09 17:29N 70°17' E 030°60'0 0.0
2017-Nov-09 16:59N 70°17' E 030°60'0 0.0
2017-Nov-09 16:29N 70°17' E 030°60'0 0.0
2017-Nov-09 15:59N 70°17' E 030°60'0 0.0
2017-Nov-09 15:29N 70°17' E 030°60'0 0.0
2017-Nov-09 14:59N 70°17' E 030°60'0 0.0
2017-Nov-09 14:29N 70°17' E 030°60'0 0.0
2017-Nov-09 13:59N 70°17' E 030°60'0 0.0
2017-Nov-09 13:29N 70°17' E 030°60'0 0.0
2017-Nov-09 12:59N 70°17' E 030°60'0 0.0
2017-Nov-09 12:29N 70°17' E 030°60'0 0.0
2017-Nov-09 11:59N 70°17' E 030°60'0 0.0
2017-Nov-09 11:29N 70°17' E 030°60'0 0.0
2017-Nov-09 10:59N 70°17' E 030°60'0 0.0
2017-Nov-09 10:29N 70°17' E 030°60'0 0.0
2017-Nov-09 09:59N 70°17' E 030°60'0 0.0
2017-Nov-09 09:29N 70°17' E 030°60'0 0.0
2017-Nov-09 08:59N 70°17' E 030°60'0 0.0
2017-Nov-09 08:29N 70°17' E 030°60'0 0.0
2017-Nov-09 07:59N 70°17' E 030°60'0 0.0
2017-Nov-09 07:29N 70°17' E 030°60'0 0.0
2017-Nov-09 06:59N 70°17' E 030°60'0 0.0
2017-Nov-09 06:29N 70°17' E 030°60'0 0.0
2017-Nov-09 05:59N 70°17' E 030°60'0 0.0
2017-Nov-09 05:29N 70°17' E 030°60'0 0.0
2017-Nov-09 04:59N 70°17' E 030°60'0 0.0
2017-Nov-09 04:29N 70°17' E 030°60'0 0.0
2017-Nov-09 03:59N 70°17' E 030°60'0 0.0
2017-Nov-09 03:29N 70°17' E 030°60'0 0.0
2017-Nov-09 02:59N 70°17' E 030°60'0 0.0
2017-Nov-09 02:29N 70°17' E 030°60'0 0.0
2017-Nov-09 01:59N 70°17' E 030°60'0 0.0
2017-Nov-09 01:29N 70°17' E 030°60'0 0.0
2017-Nov-09 00:59N 70°17' E 030°60'0 0.0
2017-Nov-09 00:29N 70°17' E 030°60'0 0.0
2017-Nov-08 23:59N 70°17' E 030°60'0 0.0
2017-Nov-08 23:29N 70°17' E 030°60'0 0.0
2017-Nov-08 22:59N 70°17' E 030°60'0 0.0
2017-Nov-08 22:29N 70°17' E 030°60'0 0.0
2017-Nov-08 21:59N 70°17' E 030°60'0 0.0
2017-Nov-08 21:29N 70°17' E 030°60'0 0.0
2017-Nov-08 20:59N 70°17' E 030°60'0 0.0
2017-Nov-08 20:29N 70°17' E 030°60'0 0.0
2017-Nov-08 19:59N 70°17' E 030°60'0 0.0
2017-Nov-08 19:29N 70°17' E 030°60'0 0.0
2017-Nov-08 18:59N 70°17' E 030°60'0 0.0
2017-Nov-08 18:29N 70°17' E 030°60'0 0.0
2017-Nov-08 17:59N 70°17' E 030°60'0 0.0
2017-Nov-08 17:29N 70°17' E 030°60'0 0.0
2017-Nov-08 16:59N 70°17' E 030°60'0 0.0
2017-Nov-08 16:26N 70°17' E 030°60'0 0.0
2017-Nov-08 15:59N 70°17' E 030°60'0 0.0
2017-Nov-08 15:29N 70°17' E 030°60'0 0.0
2017-Nov-08 14:59N 70°17' E 030°60'0 0.0
2017-Nov-08 14:26N 70°17' E 030°60'0 0.0
2017-Nov-08 13:47N 70°17' E 030°60'0 0.0
2017-Nov-08 12:35N 70°17' E 030°60'0 0.0
2017-Nov-08 12:29N 70°17' E 030°60'0 0.0
2017-Nov-08 11:47N 70°17' E 030°60'0 0.0
2017-Nov-08 10:56N 70°17' E 030°60'0 0.0
2017-Nov-08 09:38N 70°17' E 030°60'0 0.0
2017-Nov-08 09:26N 70°17' E 030°60'0 0.0
2017-Nov-08 08:59N 70°17' E 030°60'0 0.0
2017-Nov-08 08:29N 70°17' E 030°60'0 0.0
2017-Nov-08 07:59N 70°17' E 030°60'0 0.0
2017-Nov-08 07:26N 70°17' E 030°60'0 0.0
2017-Nov-08 06:59N 70°17' E 030°60'0 0.0
2017-Nov-08 06:29N 70°17' E 030°60'0 0.0
2017-Nov-08 05:56N 70°17' E 030°60'0 0.0
2017-Nov-08 05:29N 70°17' E 030°60'0 0.0
2017-Nov-08 04:59N 70°17' E 030°60'0 0.0
2017-Nov-08 04:29N 70°17' E 030°60'0 0.0
2017-Nov-08 03:59N 70°17' E 030°60'0 0.0
2017-Nov-08 03:29N 70°17' E 030°60'0 0.0
2017-Nov-08 02:59N 70°17' E 030°60'0 0.0
2017-Nov-08 02:29N 70°17' E 030°60'0 0.0
2017-Nov-08 01:59N 70°17' E 030°60'0 0.0
2017-Nov-08 01:29N 70°17' E 030°60'0 0.0
2017-Nov-08 00:59N 70°17' E 030°60'0 0.0
2017-Nov-08 00:26N 70°17' E 030°60'0 0.0
2017-Nov-07 23:59N 70°17' E 030°60'0 0.0
2017-Nov-07 22:38N 70°17' E 030°60'0 0.0
2017-Nov-07 22:29N 70°17' E 030°60'0 0.0
2017-Nov-07 21:59N 70°17' E 030°60'0 0.0
2017-Nov-07 21:29N 70°17' E 030°60'0 0.0
2017-Nov-07 20:59N 70°17' E 030°60'0 0.0
2017-Nov-07 20:29N 70°17' E 030°60'0 0.0
2017-Nov-07 19:59N 70°17' E 030°60'0 0.0
2017-Nov-07 19:29N 70°17' E 030°60'0 0.0
2017-Nov-07 18:59N 70°17' E 030°60'0 0.0
2017-Nov-07 18:29N 70°17' E 030°60'0 0.0
2017-Nov-07 17:59N 70°17' E 030°60'0 0.0
2017-Nov-07 17:29N 70°17' E 030°60'0 0.0
2017-Nov-07 16:59N 70°17' E 030°60'0 0.0
2017-Nov-07 16:29N 70°17' E 030°60'0 0.0
2017-Nov-07 15:59N 70°17' E 030°60'0 0.0
2017-Nov-07 15:29N 70°17' E 030°60'0 0.0
2017-Nov-07 14:59N 70°17' E 030°60'0 0.0
2017-Nov-07 14:29N 70°17' E 030°60'0 0.0
2017-Nov-07 13:59N 70°17' E 030°60'0 0.0
2017-Nov-07 13:29N 70°17' E 030°60'0 0.0
2017-Nov-07 12:59N 70°17' E 030°60'0 0.0
2017-Nov-07 12:29N 70°17' E 030°60'0 0.0
2017-Nov-07 11:59N 70°17' E 030°60'0 0.0
2017-Nov-07 11:29N 70°17' E 030°60'0 0.0
2017-Nov-07 10:59N 70°17' E 030°60'0 0.0
2017-Nov-07 10:29N 70°17' E 030°60'0 0.0
2017-Nov-07 09:59N 70°17' E 030°60'0 0.0
2017-Nov-07 09:29N 70°17' E 030°60'0 0.0
2017-Nov-07 08:59N 70°17' E 030°60'0 0.0
2017-Nov-07 08:29N 70°17' E 030°60'0 0.0
2017-Nov-07 07:59N 70°17' E 030°60'0 0.0
2017-Nov-07 07:29N 70°17' E 030°60'0 0.0
2017-Nov-07 06:59N 70°17' E 030°60'0 0.0
2017-Nov-07 06:29N 70°17' E 030°60'0 0.0
2017-Nov-07 05:59N 70°17' E 030°60'0 0.0
2017-Nov-07 05:29N 70°17' E 030°60'0 0.0
2017-Nov-07 04:56N 70°17' E 030°60'0 0.0
2017-Nov-07 04:29N 70°17' E 030°60'0 0.0
2017-Nov-07 03:56N 70°17' E 030°60'0 0.0
2017-Nov-07 03:26N 70°17' E 030°60'0 0.0
2017-Nov-07 02:59N 70°17' E 030°60'0 0.0
2017-Nov-07 02:29N 70°17' E 030°60'0 0.0
2017-Nov-07 01:59N 70°17' E 030°60'0 0.0
2017-Nov-07 01:29N 70°17' E 030°60'0 0.0
2017-Nov-07 00:59N 70°17' E 030°60'0 0.0
2017-Nov-07 00:29N 70°17' E 030°60'0 0.0
2017-Nov-06 23:59N 70°17' E 030°60'0 0.0
2017-Nov-06 23:29N 70°17' E 030°60'0 0.0
2017-Nov-06 22:59N 70°17' E 030°60'0 0.0
2017-Nov-06 22:29N 70°17' E 030°60'0 0.0
2017-Nov-06 21:59N 70°17' E 030°60'0 0.0
2017-Nov-06 21:29N 70°17' E 030°60'0 0.0
2017-Nov-06 20:59N 70°17' E 030°60'0 0.0
2017-Nov-06 20:29N 70°17' E 030°60'  
Track history (hours):
 
Tides and Currents Weather Stations Pressure Air Temp Water Temp Dewpoint Dewpoint Depression Visibility Wind Speed Wind Dir Waves Ship Positions

Lindfisk

Last reported at 2017-Nov-16 09:06 UTC. Time now 2017-Dec-17 06:36 UTC.
Position N 70°12' E 031°21'.
Warning: this ship's position is 30 days out of date.

Length 13 m.

Type: Fishing. MMSI: 257333220.

Date/timePositionNaut miles runAvg speedWind from/ knotsBaromVisibWave heightAir tempDewpointWater temp
2017-Nov-16 09:06N 70°12' E 031°21'1 7.3
2017-Nov-16 08:59N 70°13' E 031°19'0 0.9
2017-Nov-16 08:30N 70°12' E 031°20'1 1.3
2017-Nov-16 08:00N 70°12' E 031°22'1 1.5
2017-Nov-16 07:30N 70°11' E 031°23'1 1.5
2017-Nov-16 07:00N 70°11' E 031°25'1 1.3
2017-Nov-16 06:30N 70°10' E 031°26'0 1.0
2017-Nov-16 06:00N 70°10' E 031°27'3 5.7
2017-Nov-16 05:29N 70°13' E 031°30'3 6.6
2017-Nov-16 05:00N 70°14' E 031°21'4 7.6
2017-Nov-16 04:30N 70°15' E 031°11'4 7.8
2017-Nov-16 04:00N 70°17' E 030°60'0 0.5
2017-Nov-16 03:29N 70°17' E 031°00'0 0.0
2017-Nov-16 02:59N 70°17' E 031°00'0 0.0
2017-Nov-16 02:29N 70°17' E 031°00'0 0.0
2017-Nov-16 01:59N 70°17' E 031°00'0 0.0
2017-Nov-16 01:29N 70°17' E 031°00'0 0.0
2017-Nov-16 00:59N 70°17' E 031°00'0 0.0
2017-Nov-16 00:29N 70°17' E 031°00'0 0.0
2017-Nov-15 23:59N 70°17' E 031°00'0 0.0
2017-Nov-15 23:29N 70°17' E 031°00'0 0.0
2017-Nov-15 22:59N 70°17' E 031°00'0 0.0
2017-Nov-15 22:29N 70°17' E 031°00'0 0.0
2017-Nov-15 21:59N 70°17' E 031°00'0 0.0
2017-Nov-15 21:29N 70°17' E 031°00'0 0.0
2017-Nov-15 20:59N 70°17' E 031°00'0 0.0
2017-Nov-15 20:29N 70°17' E 031°00'0 0.0
2017-Nov-15 19:59N 70°17' E 031°00'0 0.0
2017-Nov-15 19:29N 70°17' E 031°00'0 0.0
2017-Nov-15 18:59N 70°17' E 031°00'0 0.0
2017-Nov-15 18:29N 70°17' E 031°00'0 0.0
2017-Nov-15 17:59N 70°17' E 031°00'0 0.0
2017-Nov-15 17:29N 70°17' E 031°00'0 0.0
2017-Nov-15 16:59N 70°17' E 031°00'0 0.3
2017-Nov-15 16:31N 70°17' E 030°60'0 0.0
2017-Nov-15 16:00N 70°17' E 030°60'3 6.1
2017-Nov-15 15:30N 70°15' E 031°07'4 7.7
2017-Nov-15 15:00N 70°13' E 031°17'3 7.1
2017-Nov-15 14:30N 70°11' E 031°25'3 5.9
2017-Nov-15 14:00N 70°08' E 031°29'0 0.2
2017-Nov-15 13:30N 70°08' E 031°28'1 1.3
2017-Nov-15 13:00N 70°08' E 031°27'1 1.3
2017-Nov-15 12:30N 70°08' E 031°26'1 1.2
2017-Nov-15 12:00N 70°07' E 031°24'1 1.2
2017-Nov-15 11:30N 70°07' E 031°23'1 1.2
2017-Nov-15 10:59N 70°06' E 031°22'2 3.4
2017-Nov-15 10:30N 70°08' E 031°22'1 2.4
2017-Nov-15 10:00N 70°09' E 031°22'1 1.4
2017-Nov-15 09:29N 70°10' E 031°23'1 1.3
2017-Nov-15 09:00N 70°10' E 031°24'2 3.6
2017-Nov-15 08:30N 70°09' E 031°20'1 1.3
2017-Nov-15 08:00N 70°08' E 031°19'0 1.0
2017-Nov-15 07:30N 70°08' E 031°18'1 1.1
2017-Nov-15 07:00N 70°07' E 031°17'2 4.1
2017-Nov-15 06:30N 70°08' E 031°22'3 6.1
2017-Nov-15 06:00N 70°11' E 031°29'3 6.3
2017-Nov-15 05:30N 70°13' E 031°22'3 6.2
2017-Nov-15 05:01N 70°14' E 031°14'3 6.2
2017-Nov-15 04:29N 70°16' E 031°06'2 4.6
2017-Nov-15 03:59N 70°17' E 031°00'0 0.0
2017-Nov-15 03:29N 70°17' E 031°00'0 0.0
2017-Nov-15 02:59N 70°17' E 031°00'0 0.0
2017-Nov-15 02:29N 70°17' E 031°00'0 0.0
2017-Nov-15 01:59N 70°17' E 031°00'0 0.0
2017-Nov-15 01:29N 70°17' E 031°00'0 0.0
2017-Nov-15 00:59N 70°17' E 031°00'0 0.0
2017-Nov-15 00:29N 70°17' E 031°00'0 0.0
2017-Nov-14 23:59N 70°17' E 031°00'0 0.0
2017-Nov-14 23:29N 70°17' E 031°00'0 0.0
2017-Nov-14 22:59N 70°17' E 031°00'0 0.0
2017-Nov-14 22:29N 70°17' E 031°00'0 0.0
2017-Nov-14 21:59N 70°17' E 031°00'0 0.0
2017-Nov-14 21:29N 70°17' E 031°00'0 0.0
2017-Nov-14 20:59N 70°17' E 031°00'0 0.0
2017-Nov-14 20:29N 70°17' E 031°00'0 0.0
2017-Nov-14 19:59N 70°17' E 031°00'0 0.0
2017-Nov-14 19:29N 70°17' E 031°00'0 0.0
2017-Nov-14 18:59N 70°17' E 031°00'0 0.0
2017-Nov-14 18:29N 70°17' E 031°00'0 0.0
2017-Nov-14 17:59N 70°17' E 031°00'0 0.3
2017-Nov-14 17:29N 70°17' E 030°60'0 0.0
2017-Nov-14 17:00N 70°17' E 030°60'0 0.0
2017-Nov-14 16:30N 70°17' E 030°60'0 0.1
2017-Nov-14 16:00N 70°17' E 030°60'0 0.0
2017-Nov-14 15:30N 70°17' E 030°60'0 0.0
2017-Nov-14 15:00N 70°17' E 030°60'0 0.3
2017-Nov-14 14:30N 70°17' E 031°00'3 6.1
2017-Nov-14 13:59N 70°14' E 031°05'4 7.8
2017-Nov-14 13:30N 70°11' E 031°13'4 7.6
2017-Nov-14 13:00N 70°09' E 031°20'1 1.9
2017-Nov-14 12:30N 70°08' E 031°22'0 0.8
2017-Nov-14 11:59N 70°08' E 031°22'0 0.8
2017-Nov-14 11:27N 70°08' E 031°21'0 1.1
2017-Nov-14 11:00N 70°07' E 031°20'1 1.2
2017-Nov-14 10:30N 70°07' E 031°18'1 1.1
2017-Nov-14 10:00N 70°06' E 031°17'0 0.3
2017-Nov-14 09:30N 70°07' E 031°17'3 6.4
2017-Nov-14 09:00N 70°09' E 031°22'2 3.6
2017-Nov-14 08:30N 70°10' E 031°26'0 1.0
2017-Nov-14 08:00N 70°11' E 031°25'1 1.0
2017-Nov-14 07:30N 70°11' E 031°24'0 1.0
2017-Nov-14 07:00N 70°11' E 031°23'1 1.2
2017-Nov-14 06:30N 70°12' E 031°22'1 1.1
2017-Nov-14 05:59N 70°12' E 031°21'0 0.9
2017-Nov-14 05:30N 70°13' E 031°20'1 1.1
2017-Nov-14 05:00N 70°13' E 031°18'4 7.8
2017-Nov-14 04:30N 70°15' E 031°08'4 7.4
2017-Nov-14 04:00N 70°17' E 030°60'0 0.3
2017-Nov-14 03:28N 70°17' E 031°00'0 0.0
2017-Nov-14 02:58N 70°17' E 031°00'0 0.0
2017-Nov-14 02:28N 70°17' E 031°00'0 0.0
2017-Nov-14 01:58N 70°17' E 031°00'0 0.0
2017-Nov-14 01:28N 70°17' E 031°00'0 0.0
2017-Nov-14 00:58N 70°17' E 031°00'0 0.0
2017-Nov-14 00:28N 70°17' E 031°00'0 0.0
2017-Nov-13 23:58N 70°17' E 031°00'0 0.0
2017-Nov-13 23:28N 70°17' E 031°00'0 0.0
2017-Nov-13 22:58N 70°17' E 031°00'0 0.0
2017-Nov-13 22:28N 70°17' E 031°00'0 0.0
2017-Nov-13 21:58N 70°17' E 031°00'0 0.0
2017-Nov-13 01:59N 70°17' E 030°60'0 0.0
2017-Nov-13 01:29N 70°17' E 030°60'0 0.0
2017-Nov-13 00:59N 70°17' E 030°60'0 0.0
2017-Nov-13 00:29N 70°17' E 030°60'0 0.0
2017-Nov-12 23:59N 70°17' E 030°60'0 0.0
2017-Nov-12 23:29N 70°17' E 030°60'0 0.0
2017-Nov-12 22:59N 70°17' E 030°60'0 0.0
2017-Nov-12 22:29N 70°17' E 030°60'0 0.0
2017-Nov-12 21:56N 70°17' E 030°60'0 0.0
2017-Nov-12 21:29N 70°17' E 030°60'0 0.0
2017-Nov-12 20:59N 70°17' E 030°60'0 0.0
2017-Nov-12 20:29N 70°17' E 030°60'0 0.0
2017-Nov-12 19:59N 70°17' E 030°60'0 0.0
2017-Nov-12 19:29N 70°17' E 030°60'0 0.0
2017-Nov-12 18:59N 70°17' E 030°60'0 0.0
2017-Nov-12 18:29N 70°17' E 030°60'0 0.0
2017-Nov-12 17:59N 70°17' E 030°60'0 0.0
2017-Nov-12 17:29N 70°17' E 030°60'0 0.0
2017-Nov-12 16:59N 70°17' E 030°60'0 0.0
2017-Nov-12 16:29N 70°17' E 030°60'0 0.0
2017-Nov-12 15:59N 70°17' E 030°60'0 0.0
2017-Nov-12 15:29N 70°17' E 030°60'0 0.0
2017-Nov-12 14:59N 70°17' E 030°60'0 0.0
2017-Nov-12 14:29N 70°17' E 030°60'0 0.0
2017-Nov-12 13:59N 70°17' E 030°60'0 0.0
2017-Nov-12 13:29N 70°17' E 030°60'0 0.0
2017-Nov-12 12:59N 70°17' E 030°60'0 0.0
2017-Nov-12 12:29N 70°17' E 030°60'0 0.0
2017-Nov-12 11:59N 70°17' E 030°60'0 0.0
2017-Nov-12 11:29N 70°17' E 030°60'0 0.0
2017-Nov-12 10:59N 70°17' E 030°60'0 0.0
2017-Nov-12 10:29N 70°17' E 030°60'0 0.0
2017-Nov-12 09:59N 70°17' E 030°60'0 0.0
2017-Nov-12 09:29N 70°17' E 030°60'0 0.0
2017-Nov-12 08:59N 70°17' E 030°60'0 0.0
2017-Nov-12 08:29N 70°17' E 030°60'0 0.0
2017-Nov-12 07:59N 70°17' E 030°60'0 0.0
2017-Nov-12 07:29N 70°17' E 030°60'0 0.0
2017-Nov-12 06:59N 70°17' E 030°60'0 0.0
2017-Nov-12 06:29N 70°17' E 030°60'0 0.0
2017-Nov-12 05:59N 70°17' E 030°60'0 0.0
2017-Nov-12 05:29N 70°17' E 030°60'0 0.0
2017-Nov-12 04:59N 70°17' E 030°60'0 0.0
2017-Nov-12 04:29N 70°17' E 030°60'0 0.0
2017-Nov-12 03:59N 70°17' E 030°60'0 0.0
2017-Nov-12 03:29N 70°17' E 030°60'0 0.0
2017-Nov-12 02:59N 70°17' E 030°60'0 0.0
2017-Nov-12 02:29N 70°17' E 030°60'0 0.0
2017-Nov-12 01:59N 70°17' E 030°60'0 0.0
2017-Nov-12 01:29N 70°17' E 030°60'0 0.0
2017-Nov-12 00:59N 70°17' E 030°60'0 0.0
2017-Nov-12 00:29N 70°17' E 030°60'0 0.0
2017-Nov-11 23:59N 70°17' E 030°60'0 0.0
2017-Nov-11 23:29N 70°17' E 030°60'0 0.0
2017-Nov-11 22:59N 70°17' E 030°60'0 0.0
2017-Nov-11 22:29N 70°17' E 030°60'0 0.0
2017-Nov-11 21:59N 70°17' E 030°60'0 0.0
2017-Nov-11 21:29N 70°17' E 030°60'0 0.0
2017-Nov-11 20:59N 70°17' E 030°60'0 0.0
2017-Nov-11 20:29N 70°17' E 030°60'0 0.0
2017-Nov-11 19:59N 70°17' E 030°60'0 0.0
2017-Nov-11 19:29N 70°17' E 030°60'0 0.0
2017-Nov-11 18:59N 70°17' E 030°60'0 0.0
2017-Nov-11 18:29N 70°17' E 030°60'0 0.0
2017-Nov-11 17:59N 70°17' E 030°60'0 0.0
2017-Nov-11 17:26N 70°17' E 030°60'0 0.0
2017-Nov-11 16:59N 70°17' E 030°60'0 0.0
2017-Nov-11 16:29N 70°17' E 030°60'0 0.0
2017-Nov-11 15:59N 70°17' E 030°60'0 0.0
2017-Nov-11 15:29N 70°17' E 030°60'0 0.0
2017-Nov-11 14:59N 70°17' E 030°60'0 0.0
2017-Nov-11 14:29N 70°17' E 030°60'0 0.0
2017-Nov-11 13:59N 70°17' E 030°60'0 0.0
2017-Nov-11 13:29N 70°17' E 030°60'0 0.0
2017-Nov-11 12:59N 70°17' E 030°60'0 0.0
2017-Nov-11 12:29N 70°17' E 030°60'0 0.0
2017-Nov-11 11:59N 70°17' E 030°60'0 0.0
2017-Nov-11 11:29N 70°17' E 030°60'0 0.0
2017-Nov-11 10:59N 70°17' E 030°60'0 0.0
2017-Nov-11 10:29N 70°17' E 030°60'0 0.0
2017-Nov-11 09:59N 70°17' E 030°60'0 0.0
2017-Nov-11 09:29N 70°17' E 030°60'0 0.0
2017-Nov-11 08:59N 70°17' E 030°60'0 0.0
2017-Nov-11 08:29N 70°17' E 030°60'0 0.0
2017-Nov-11 07:59N 70°17' E 030°60'0 0.0
2017-Nov-11 07:29N 70°17' E 030°60'0 0.0
2017-Nov-11 06:59N 70°17' E 030°60'0 0.0
2017-Nov-11 06:29N 70°17' E 030°60'0 0.0
2017-Nov-11 05:59N 70°17' E 030°60'0 0.0
2017-Nov-11 05:29N 70°17' E 030°60'0 0.0
2017-Nov-11 04:59N 70°17' E 030°60'0 0.0
2017-Nov-11 04:29N 70°17' E 030°60'0 0.0
2017-Nov-11 03:59N 70°17' E 030°60'0 0.0
2017-Nov-11 03:29N 70°17' E 030°60'0 0.0
2017-Nov-11 02:59N 70°17' E 030°60'0 0.0
2017-Nov-11 02:29N 70°17' E 030°60'0 0.0
2017-Nov-11 01:59N 70°17' E 030°60'0 0.0
2017-Nov-11 01:29N 70°17' E 030°60'0 0.0
2017-Nov-11 00:59N 70°17' E 030°60'0 0.0
2017-Nov-11 00:29N 70°17' E 030°60'0 0.0
2017-Nov-10 23:59N 70°17' E 030°60'0 0.0
2017-Nov-10 23:29N 70°17' E 030°60'0 0.0
2017-Nov-10 21:56N 70°17' E 030°60'0 0.0
2017-Nov-10 21:23N 70°17' E 030°60'0 0.0
2017-Nov-10 20:59N 70°17' E 030°60'0 0.0
2017-Nov-10 20:29N 70°17' E 030°60'0 0.0
2017-Nov-10 19:59N 70°17' E 030°60'0 0.0
2017-Nov-10 19:29N 70°17' E 030°60'0 0.0
2017-Nov-10 18:59N 70°17' E 030°60'0 0.0
2017-Nov-10 18:26N 70°17' E 030°60'0 0.0
2017-Nov-10 17:59N 70°17' E 030°60'0 0.0
2017-Nov-10 17:29N 70°17' E 030°60'0 0.0
2017-Nov-10 16:59N 70°17' E 030°60'0 0.0
2017-Nov-10 16:29N 70°17' E 030°60'0 0.0
2017-Nov-10 15:59N 70°17' E 030°60'0 0.0
2017-Nov-10 15:29N 70°17' E 030°60'0 0.0
2017-Nov-10 14:59N 70°17' E 030°60'0 0.0
2017-Nov-10 14:29N 70°17' E 030°60'0 0.0
2017-Nov-10 13:59N 70°17' E 030°60'0 0.0
2017-Nov-10 13:29N 70°17' E 030°60'0 0.0
2017-Nov-10 12:59N 70°17' E 030°60'0 0.0
2017-Nov-10 12:29N 70°17' E 030°60'0 0.0
2017-Nov-10 11:59N 70°17' E 030°60'0 0.0
2017-Nov-10 11:29N 70°17' E 030°60'0 0.0
2017-Nov-10 10:59N 70°17' E 030°60'0 0.0
2017-Nov-10 10:29N 70°17' E 030°60'0 0.0
2017-Nov-10 09:59N 70°17' E 030°60'0 0.0
2017-Nov-10 09:29N 70°17' E 030°60'0 0.0
2017-Nov-10 08:59N 70°17' E 030°60'0 0.0
2017-Nov-10 08:29N 70°17' E 030°60'0 0.0
2017-Nov-10 07:59N 70°17' E 030°60'0 0.0
2017-Nov-10 07:29N 70°17' E 030°60'0 0.0
2017-Nov-10 06:59N 70°17' E 030°60'0 0.0
2017-Nov-10 06:29N 70°17' E 030°60'0 0.0
2017-Nov-10 05:59N 70°17' E 030°60'0 0.0
2017-Nov-10 05:29N 70°17' E 030°60'0 0.0
2017-Nov-10 04:59N 70°17' E 030°60'0 0.0
2017-Nov-10 04:29N 70°17' E 030°60'0 0.0
2017-Nov-10 03:59N 70°17' E 030°60'0 0.0
2017-Nov-10 03:29N 70°17' E 030°60'0 0.0
2017-Nov-10 02:59N 70°17' E 030°60'0 0.0
2017-Nov-10 02:29N 70°17' E 030°60'0 0.0
2017-Nov-10 01:59N 70°17' E 030°60'0 0.0
2017-Nov-10 01:29N 70°17' E 030°60'0 0.0
2017-Nov-10 00:59N 70°17' E 030°60'0 0.0
2017-Nov-10 00:29N 70°17' E 030°60'0 0.0
2017-Nov-09 23:59N 70°17' E 030°60'0 0.0
2017-Nov-09 23:29N 70°17' E 030°60'0 0.0
2017-Nov-09 22:59N 70°17' E 030°60'0 0.0
2017-Nov-09 22:29N 70°17' E 030°60'0 0.0
2017-Nov-09 21:59N 70°17' E 030°60'0 0.0
2017-Nov-09 21:29N 70°17' E 030°60'0 0.0
2017-Nov-09 20:59N 70°17' E 030°60'0 0.0
2017-Nov-09 20:29N 70°17' E 030°60'0 0.0
2017-Nov-09 19:59N 70°17' E 030°60'0 0.0
2017-Nov-09 19:29N 70°17' E 030°60'0 0.0
2017-Nov-09 18:59N 70°17' E 030°60'0 0.0
2017-Nov-09 18:29N 70°17' E 030°60'0 0.0
2017-Nov-09 17:59N 70°17' E 030°60'0 0.0
2017-Nov-09 17:29N 70°17' E 030°60'0 0.0
2017-Nov-09 16:59N 70°17' E 030°60'0 0.0
2017-Nov-09 16:29N 70°17' E 030°60'0 0.0
2017-Nov-09 15:59N 70°17' E 030°60'0 0.0
2017-Nov-09 15:29N 70°17' E 030°60'0 0.0
2017-Nov-09 14:59N 70°17' E 030°60'0 0.0
2017-Nov-09 14:29N 70°17' E 030°60'0 0.0
2017-Nov-09 13:59N 70°17' E 030°60'0 0.0
2017-Nov-09 13:29N 70°17' E 030°60'0 0.0
2017-Nov-09 12:59N 70°17' E 030°60'0 0.0
2017-Nov-09 12:29N 70°17' E 030°60'0 0.0
2017-Nov-09 11:59N 70°17' E 030°60'0 0.0
2017-Nov-09 11:29N 70°17' E 030°60'0 0.0
2017-Nov-09 10:59N 70°17' E 030°60'0 0.0
2017-Nov-09 10:29N 70°17' E 030°60'0 0.0
2017-Nov-09 09:59N 70°17' E 030°60'0 0.0
2017-Nov-09 09:29N 70°17' E 030°60'0 0.0
2017-Nov-09 08:59N 70°17' E 030°60'0 0.0
2017-Nov-09 08:29N 70°17' E 030°60'0 0.0
2017-Nov-09 07:59N 70°17' E 030°60'0 0.0
2017-Nov-09 07:29N 70°17' E 030°60'0 0.0
2017-Nov-09 06:59N 70°17' E 030°60'0 0.0
2017-Nov-09 06:29N 70°17' E 030°60'0 0.0
2017-Nov-09 05:59N 70°17' E 030°60'0 0.0
2017-Nov-09 05:29N 70°17' E 030°60'0 0.0
2017-Nov-09 04:59N 70°17' E 030°60'0 0.0
2017-Nov-09 04:29N 70°17' E 030°60'0 0.0
2017-Nov-09 03:59N 70°17' E 030°60'0 0.0
2017-Nov-09 03:29N 70°17' E 030°60'0 0.0
2017-Nov-09 02:59N 70°17' E 030°60'0 0.0
2017-Nov-09 02:29N 70°17' E 030°60'0 0.0
2017-Nov-09 01:59N 70°17' E 030°60'0 0.0
2017-Nov-09 01:29N 70°17' E 030°60'0 0.0
2017-Nov-09 00:59N 70°17' E 030°60'0 0.0
2017-Nov-09 00:29N 70°17' E 030°60'0 0.0
2017-Nov-08 23:59N 70°17' E 030°60'0 0.0
2017-Nov-08 23:29N 70°17' E 030°60'0 0.0
2017-Nov-08 22:59N 70°17' E 030°60'0 0.0
2017-Nov-08 22:29N 70°17' E 030°60'0 0.0
2017-Nov-08 21:59N 70°17' E 030°60'0 0.0
2017-Nov-08 21:29N 70°17' E 030°60'0 0.0
2017-Nov-08 20:59N 70°17' E 030°60'0 0.0
2017-Nov-08 20:29N 70°17' E 030°60'0 0.0
2017-Nov-08 19:59N 70°17' E 030°60'0 0.0
2017-Nov-08 19:29N 70°17' E 030°60'0 0.0
2017-Nov-08 18:59N 70°17' E 030°60'0 0.0
2017-Nov-08 18:29N 70°17' E 030°60'0 0.0
2017-Nov-08 17:59N 70°17' E 030°60'0 0.0
2017-Nov-08 17:29N 70°17' E 030°60'0 0.0
2017-Nov-08 16:59N 70°17' E 030°60'0 0.0
2017-Nov-08 16:26N 70°17' E 030°60'0 0.0
2017-Nov-08 15:59N 70°17' E 030°60'0 0.0
2017-Nov-08 15:29N 70°17' E 030°60'0 0.0
2017-Nov-08 14:59N 70°17' E 030°60'0 0.0
2017-Nov-08 14:26N 70°17' E 030°60'0 0.0
2017-Nov-08 13:47N 70°17' E 030°60'0 0.0
2017-Nov-08 12:35N 70°17' E 030°60'0 0.0
2017-Nov-08 12:29N 70°17' E 030°60'0 0.0
2017-Nov-08 11:47N 70°17' E 030°60'0 0.0
2017-Nov-08 10:56N 70°17' E 030°60'0 0.0
2017-Nov-08 09:38N 70°17' E 030°60'0 0.0
2017-Nov-08 09:26N 70°17' E 030°60'0 0.0
2017-Nov-08 08:59N 70°17' E 030°60'0 0.0
2017-Nov-08 08:29N 70°17' E 030°60'0 0.0
2017-Nov-08 07:59N 70°17' E 030°60'0 0.0
2017-Nov-08 07:26N 70°17' E 030°60'0 0.0
2017-Nov-08 06:59N 70°17' E 030°60'0 0.0
2017-Nov-08 06:29N 70°17' E 030°60'0 0.0
2017-Nov-08 05:56N 70°17' E 030°60'0 0.0
2017-Nov-08 05:29N 70°17' E 030°60'0 0.0
2017-Nov-08 04:59N 70°17' E 030°60'0 0.0
2017-Nov-08 04:29N 70°17' E 030°60'0 0.0
2017-Nov-08 03:59N 70°17' E 030°60'0 0.0
2017-Nov-08 03:29N 70°17' E 030°60'0 0.0
2017-Nov-08 02:59N 70°17' E 030°60'0 0.0
2017-Nov-08 02:29N 70°17' E 030°60'0 0.0
2017-Nov-08 01:59N 70°17' E 030°60'0 0.0
2017-Nov-08 01:29N 70°17' E 030°60'0 0.0
2017-Nov-08 00:59N 70°17' E 030°60'0 0.0
2017-Nov-08 00:26N 70°17' E 030°60'0 0.0
2017-Nov-07 23:59N 70°17' E 030°60'0 0.0
2017-Nov-07 22:38N 70°17' E 030°60'0 0.0
2017-Nov-07 22:29N 70°17' E 030°60'0 0.0
2017-Nov-07 21:59N 70°17' E 030°60'0 0.0
2017-Nov-07 21:29N 70°17' E 030°60'0 0.0
2017-Nov-07 20:59N 70°17' E 030°60'0 0.0
2017-Nov-07 20:29N 70°17' E 030°60'0 0.0
2017-Nov-07 19:59N 70°17' E 030°60'0 0.0
2017-Nov-07 19:29N 70°17' E 030°60'0 0.0
2017-Nov-07 18:59N 70°17' E 030°60'0 0.0
2017-Nov-07 18:29N 70°17' E 030°60'0 0.0
2017-Nov-07 17:59N 70°17' E 030°60'0 0.0
2017-Nov-07 17:29N 70°17' E 030°60'0 0.0
2017-Nov-07 16:59N 70°17' E 030°60'0 0.0
2017-Nov-07 16:29N 70°17' E 030°60'0 0.0
2017-Nov-07 15:59N 70°17' E 030°60'0 0.0
2017-Nov-07 15:29N 70°17' E 030°60'0 0.0
2017-Nov-07 14:59N 70°17' E 030°60'0 0.0
2017-Nov-07 14:29N 70°17' E 030°60'0 0.0
2017-Nov-07 13:59N 70°17' E 030°60'0 0.0
2017-Nov-07 13:29N 70°17' E 030°60'0 0.0
2017-Nov-07 12:59N 70°17' E 030°60'0 0.0
2017-Nov-07 12:29N 70°17' E 030°60'0 0.0
2017-Nov-07 11:59N 70°17' E 030°60'0 0.0
2017-Nov-07 11:29N 70°17' E 030°60'0 0.0
2017-Nov-07 10:59N 70°17' E 030°60'0 0.0
2017-Nov-07 10:29N 70°17' E 030°60'0 0.0
2017-Nov-07 09:59N 70°17' E 030°60'0 0.0
2017-Nov-07 09:29N 70°17' E 030°60'0 0.0
2017-Nov-07 08:59N 70°17' E 030°60'0 0.0
2017-Nov-07 08:29N 70°17' E 030°60'0 0.0
2017-Nov-07 07:59N 70°17' E 030°60'0 0.0
2017-Nov-07 07:29N 70°17' E 030°60'0 0.0
2017-Nov-07 06:59N 70°17' E 030°60'0 0.0
2017-Nov-07 06:29N 70°17' E 030°60'0 0.0
2017-Nov-07 05:59N 70°17' E 030°60'0 0.0
2017-Nov-07 05:29N 70°17' E 030°60'0 0.0
2017-Nov-07 04:56N 70°17' E 030°60'0 0.0
2017-Nov-07 04:29N 70°17' E 030°60'0 0.0
2017-Nov-07 03:56N 70°17' E 030°60'0 0.0
2017-Nov-07 03:26N 70°17' E 030°60'0 0.0
2017-Nov-07 02:59N 70°17' E 030°60'0 0.0
2017-Nov-07 02:29N 70°17' E 030°60'0 0.0
2017-Nov-07 01:59N 70°17' E 030°60'0 0.0
2017-Nov-07 01:29N 70°17' E 030°60'0 0.0
2017-Nov-07 00:59N 70°17' E 030°60'0 0.0
2017-Nov-07 00:29N 70°17' E 030°60'0 0.0
2017-Nov-06 23:59N 70°17' E 030°60'0 0.0
2017-Nov-06 23:29N 70°17' E 030°60'0 0.0
2017-Nov-06 22:59N 70°17' E 030°60'0 0.0
2017-Nov-06 22:29N 70°17' E 030°60'0 0.0
2017-Nov-06 21:59N 70°17' E 030°60'0 0.0
2017-Nov-06 21:29N 70°17' E 030°60'0 0.0
2017-Nov-06 20:59N 70°17' E 030°60'0 0.0
2017-Nov-06 20:29N 70°17' E 030°60'  

Dump ship's entire track history